Hewlett, New York
Current Conditions -  °F | °C
As of 7:51 AM on Saturday 25 Oct 2014 (Local Time) from KJFK Reporting Station
Few Clouds Few Clouds  
Wind Chill: 51°   Ceiling: Unl
Heat Index: 51°   Visibility: 10mi
Dew Point: 37°   Wind: 6mph
Humidity: 59%   Direction: 310°NW
Pressure: 29.87"   Gusts: NA
Location:  40.64°N, 73.7°W
Report Text: KJFK 251151Z 31005KT 10SM FEW270 11/03 A2987 RMK AO2 SLP116 T01060028 10122 20100 51003
Loading
Personal Weather Stations






























Interactive Weather Map
Tropical Storm Tracking
New forecast layout! Learn more

10-Day Weather Forecast

Advertisements
Track Severe Weather on mobile